TimeMST,TemperatureF,Dew PointF,Humidity,Sea Level PressureIn,VisibilityMPH,Wind Direction,Wind SpeedMPH,Gust SpeedMPH,PrecipitationIn,Events,Conditions,WindDirDegrees,DateUTC
1:56 AM,24.1,15.1,69,30.03,10.0,South,15.0,-,N/A,,Clear,180,2012-11-24 08:56:00
2:56 AM,23.0,15.1,72,29.99,10.0,South,15.0,-,N/A,,Clear,170,2012-11-24 09:56:00
3:56 AM,23.0,15.1,72,29.98,10.0,South,19.6,-,N/A,,Clear,190,2012-11-24 10:56:00
4:56 AM,21.9,15.1,75,29.95,10.0,South,13.8,-,N/A,,Clear,190,2012-11-24 11:56:00
5:56 AM,23.0,16.0,74,29.92,10.0,South,13.8,-,N/A,,Clear,180,2012-11-24 12:56:00
6:56 AM,23.0,16.0,74,29.90,10.0,SSW,10.4,-,N/A,,Clear,200,2012-11-24 13:56:00
7:56 AM,32.0,19.9,61,29.87,10.0,WSW,10.4,-,N/A,,Overcast,240,2012-11-24 14:56:00
8:56 AM,37.0,23.0,57,29.88,10.0,West,16.1,-,N/A,,Overcast,280,2012-11-24 15:56:00
9:56 AM,39.9,28.9,65,29.86,10.0,West,10.4,-,0.00,,Overcast,270,2012-11-24 16:56:00
10:56 AM,46.9,34.0,61,29.84,10.0,West,12.7,-,N/A,,Mostly Cloudy,280,2012-11-24 17:56:00
11:56 AM,48.9,33.1,54,29.82,10.0,WNW,20.7,27.6,N/A,,Clear,290,2012-11-24 18:56:00
12:56 PM,48.9,32.0,52,29.83,10.0,WNW,25.3,34.5,N/A,,Clear,290,2012-11-24 19:56:00
1:56 PM,45.0,32.0,60,29.85,10.0,WNW,17.3,-,N/A,,Partly Cloudy,300,2012-11-24 20:56:00
2:56 PM,41.0,30.0,65,29.88,10.0,NW,15.0,-,N/A,,Partly Cloudy,310,2012-11-24 21:56:00
3:56 PM,37.0,28.9,73,29.93,10.0,NW,9.2,-,N/A,,Clear,310,2012-11-24 22:56:00
4:56 PM,33.1,27.0,78,29.96,10.0,NW,10.4,-,N/A,,Partly Cloudy,310,2012-11-24 23:56:00
5:56 PM,30.9,27.0,85,29.97,10.0,WNW,8.1,-,N/A,,Partly Cloudy,300,2012-11-25 00:56:00
6:56 PM,30.9,27.0,85,29.99,10.0,WNW,11.5,-,N/A,,Scattered Clouds,300,2012-11-25 01:56:00
7:56 PM,26.1,24.1,92,29.99,10.0,WNW,10.4,-,N/A,,Clear,300,2012-11-25 02:56:00
8:56 PM,25.0,23.0,92,30.01,10.0,WNW,4.6,-,N/A,,Clear,290,2012-11-25 03:56:00
9:56 PM,24.1,21.9,91,30.01,10.0,WNW,10.4,-,N/A,,Clear,300,2012-11-25 04:56:00
10:56 PM,23.0,21.0,92,30.00,10.0,NW,10.4,-,N/A,,Clear,320,2012-11-25 05:56:00
11:17 PM,23.0,21.2,93,29.94,10.0,NW,9.2,-,N/A,,Scattered Clouds,310,2012-11-25 06:17:00
11:56 PM,25.0,23.0,92,30.00,10.0,NNW,3.5,-,N/A,,Overcast,330,2012-11-25 06:56:00